Terminal Aerodrome Forecast
Issued by NWS

Home | Current Version | Previous Version | Text Only | Print | Product List | Glossary On
Versions: 1 2 3 4 5 6 7 8 9 10 11 12
000
FTUS41 KCAR 031739
TAFPQI
TAF
KPQI 031739Z 0318/0418 01007KT P6SM BKN025
     FM040300 00000KT P6SM SCT030
     FM041300 17005KT P6SM FEW040
      AMD LTD TO CLD VIS AND WIND=

USA.gov is the U.S. government's official web portal to all federal, state and local government web resources and services.